createdAt,value
2019-02-23T00:00:03.692Z,9.34
2019-02-23T00:02:32.115Z,9.32
2019-02-23T00:05:00.548Z,9.30
2019-02-23T00:07:29.100Z,9.27
2019-02-23T00:09:57.548Z,9.26
2019-02-23T00:12:26.230Z,9.26
2019-02-23T00:14:54.739Z,9.23
2019-02-23T00:17:23.289Z,9.24
2019-02-23T00:19:51.798Z,9.22
2019-02-23T00:22:20.404Z,9.21
2019-02-23T00:24:48.995Z,9.19
2019-02-23T00:27:17.538Z,9.17
2019-02-23T00:29:46.072Z,9.15
2019-02-23T00:32:14.568Z,9.14
2019-02-23T00:34:43.102Z,9.13
2019-02-23T00:37:11.630Z,9.12
2019-02-23T00:39:40.081Z,9.10
2019-02-23T00:42:08.544Z,9.08
2019-02-23T00:44:37.242Z,9.08
2019-02-23T00:47:05.756Z,9.05
2019-02-23T00:49:36.615Z,9.02
2019-02-23T00:52:04.747Z,9.01
2019-02-23T00:54:33.383Z,9.01
2019-02-23T00:57:01.911Z,8.99
2019-02-23T00:59:30.416Z,8.96
2019-02-23T01:01:58.872Z,8.95
2019-02-23T01:04:27.318Z,8.93
2019-02-23T01:06:55.826Z,8.90
2019-02-23T01:09:24.362Z,8.90
2019-02-23T01:11:52.914Z,8.89
2019-02-23T01:14:21.456Z,8.84
2019-02-23T01:16:50.220Z,8.82
2019-02-23T01:19:18.750Z,8.81
2019-02-23T01:21:47.299Z,8.80
2019-02-23T01:24:15.759Z,8.76
2019-02-23T01:26:44.257Z,8.74
2019-02-23T01:29:12.850Z,8.73
2019-02-23T01:31:41.350Z,8.73
2019-02-23T01:34:09.882Z,8.72
2019-02-23T01:36:38.586Z,8.70
2019-02-23T01:39:07.365Z,8.69
2019-02-23T01:41:35.959Z,8.68
2019-02-23T01:44:04.462Z,8.68
2019-02-23T01:46:33.020Z,8.66
2019-02-23T01:49:01.561Z,8.64
2019-02-23T01:51:30.158Z,8.63
2019-02-23T01:53:58.712Z,8.62
2019-02-23T01:56:27.341Z,8.62
2019-02-23T01:58:55.772Z,8.60
2019-02-23T02:01:24.483Z,8.59
2019-02-23T02:03:53.080Z,8.56
2019-02-23T02:06:21.681Z,8.54
2019-02-23T02:08:50.099Z,8.54
2019-02-23T02:11:18.696Z,8.53
2019-02-23T02:13:47.122Z,8.52
2019-02-23T02:16:15.650Z,8.49
2019-02-23T02:18:44.140Z,8.47
2019-02-23T02:21:12.817Z,8.46
2019-02-23T02:23:41.258Z,8.42
2019-02-23T02:26:09.771Z,8.39
2019-02-23T02:28:38.228Z,8.37
2019-02-23T02:31:06.667Z,8.35
2019-02-23T02:33:38.190Z,8.31
2019-02-23T02:36:06.794Z,8.28
2019-02-23T02:38:35.779Z,8.26
2019-02-23T02:41:04.263Z,8.24
2019-02-23T02:43:32.788Z,8.22
2019-02-23T02:46:01.369Z,8.21
2019-02-23T02:48:29.907Z,8.20
2019-02-23T02:50:58.390Z,8.19
2019-02-23T02:53:26.868Z,8.19
2019-02-23T02:55:55.541Z,8.16
2019-02-23T02:58:24.009Z,8.13
2019-02-23T03:00:52.432Z,8.10
2019-02-23T03:03:20.889Z,8.10
2019-02-23T03:05:49.310Z,8.08
2019-02-23T03:08:17.943Z,8.04
2019-02-23T03:10:46.372Z,8.02
2019-02-23T03:13:14.914Z,8.00
2019-02-23T03:15:43.547Z,7.98
2019-02-23T03:18:12.036Z,7.97
2019-02-23T03:20:40.642Z,7.96
2019-02-23T03:23:09.057Z,7.92
2019-02-23T03:25:37.581Z,7.92
2019-02-23T03:28:06.017Z,7.90
2019-02-23T03:30:34.461Z,7.88
2019-02-23T03:33:02.957Z,7.87
2019-02-23T03:35:31.495Z,7.84
2019-02-23T03:38:00.436Z,7.82
2019-02-23T03:40:28.883Z,7.80
2019-02-23T03:42:57.624Z,7.78
2019-02-23T03:45:26.140Z,7.76
2019-02-23T03:47:54.667Z,7.74
2019-02-23T03:50:23.125Z,7.72
2019-02-23T03:52:51.553Z,7.70
2019-02-23T03:55:20.177Z,7.69
2019-02-23T03:57:48.611Z,7.67
2019-02-23T04:00:17.324Z,7.65
2019-02-23T04:02:45.800Z,7.63
2019-02-23T04:05:14.447Z,7.61
2019-02-23T04:07:42.952Z,7.60
2019-02-23T04:10:11.648Z,7.57
2019-02-23T04:12:40.082Z,7.57
2019-02-23T04:15:08.909Z,7.54
2019-02-23T04:17:37.417Z,7.49
2019-02-23T04:20:07.683Z,7.46
2019-02-23T04:22:36.206Z,7.46
2019-02-23T04:25:06.805Z,7.44
2019-02-23T04:27:35.536Z,7.42
2019-02-23T04:30:05.127Z,7.40
2019-02-23T04:32:33.663Z,7.38
2019-02-23T04:35:02.121Z,7.36
2019-02-23T04:37:30.631Z,7.33
2019-02-23T04:39:59.135Z,7.32
2019-02-23T04:42:27.620Z,7.29
2019-02-23T04:44:56.294Z,7.26
2019-02-23T04:47:24.909Z,7.24
2019-02-23T04:49:54.677Z,7.23
2019-02-23T04:52:23.211Z,7.24
2019-02-23T04:54:51.736Z,7.20
2019-02-23T04:57:20.190Z,7.19
2019-02-23T04:59:48.690Z,7.17
2019-02-23T05:02:17.314Z,7.16
2019-02-23T05:04:45.807Z,7.11
2019-02-23T05:07:14.220Z,7.10
2019-02-23T05:09:42.687Z,7.07
2019-02-23T05:12:11.193Z,7.06
2019-02-23T05:14:39.922Z,7.04
2019-02-23T05:17:08.295Z,7.02
2019-02-23T05:19:36.834Z,6.98
2019-02-23T05:22:05.306Z,6.96
2019-02-23T05:24:33.747Z,6.95
2019-02-23T05:27:02.200Z,6.94
2019-02-23T05:29:30.735Z,6.92
2019-02-23T05:31:59.656Z,6.91
2019-02-23T05:34:28.255Z,6.89
2019-02-23T05:36:56.989Z,6.88
2019-02-23T05:39:25.482Z,6.88
2019-02-23T05:41:53.860Z,6.84
2019-02-23T05:44:22.318Z,6.85
2019-02-23T05:46:50.824Z,6.82
2019-02-23T05:49:19.456Z,6.79
2019-02-23T05:51:47.868Z,6.78
2019-02-23T05:54:16.412Z,6.76
2019-02-23T05:56:45.013Z,6.74
2019-02-23T05:59:13.466Z,6.72
2019-02-23T06:01:41.908Z,6.71
2019-02-23T06:04:10.455Z,6.69
2019-02-23T06:06:38.961Z,6.70
2019-02-23T06:09:07.499Z,6.68
2019-02-23T06:11:36.058Z,6.65
2019-02-23T06:14:04.601Z,6.63
2019-02-23T06:16:33.035Z,6.62
2019-02-23T06:19:01.900Z,6.60
2019-02-23T06:21:30.342Z,6.58
2019-02-23T06:23:58.801Z,6.56
2019-02-23T06:26:27.245Z,6.53
2019-02-23T06:28:55.714Z,6.54
2019-02-23T06:31:24.373Z,6.51
2019-02-23T06:33:52.939Z,6.49
2019-02-23T06:36:21.435Z,6.48
2019-02-23T06:38:49.943Z,6.45
2019-02-23T06:41:18.402Z,6.42
2019-02-23T06:43:46.890Z,6.43
2019-02-23T06:46:15.339Z,6.40
2019-02-23T06:48:43.836Z,6.39
2019-02-23T06:51:12.381Z,6.37
2019-02-23T06:53:40.912Z,6.40
2019-02-23T06:56:09.424Z,6.37
2019-02-23T06:58:38.062Z,6.36
2019-02-23T07:01:06.522Z,6.35
2019-02-23T07:03:35.196Z,6.36
2019-02-23T07:06:04.053Z,6.34
2019-02-23T07:08:32.628Z,6.36
2019-02-23T07:11:01.411Z,6.36
2019-02-23T07:13:29.907Z,6.41
2019-02-23T07:15:58.588Z,6.40
2019-02-23T07:18:27.102Z,6.40
2019-02-23T07:20:55.603Z,6.39
2019-02-23T07:23:24.058Z,6.39
2019-02-23T07:25:52.517Z,6.39
2019-02-23T07:28:21.083Z,6.38
2019-02-23T07:30:49.583Z,6.39
2019-02-23T07:33:31.884Z,6.39
2019-02-23T07:35:48.439Z,6.37
2019-02-23T07:38:17.136Z,6.39
2019-02-23T07:40:45.565Z,6.40
2019-02-23T07:43:14.111Z,6.39
2019-02-23T07:45:42.602Z,6.37
2019-02-23T07:48:11.052Z,6.38
2019-02-23T07:50:39.547Z,6.39
2019-02-23T07:53:08.247Z,6.44
2019-02-23T07:55:36.823Z,6.51
2019-02-23T07:58:05.630Z,6.56
2019-02-23T08:00:34.124Z,6.60
2019-02-23T08:03:02.665Z,6.62
2019-02-23T08:05:31.091Z,6.65
2019-02-23T08:07:59.728Z,6.67
2019-02-23T08:10:28.218Z,6.71
2019-02-23T08:12:56.880Z,6.76
2019-02-23T08:15:25.378Z,6.79
2019-02-23T08:17:53.991Z,6.82
2019-02-23T08:20:22.451Z,6.84
2019-02-23T08:22:53.700Z,6.88
2019-02-23T08:25:22.228Z,6.91
2019-02-23T08:27:50.792Z,6.94
2019-02-23T08:30:19.298Z,7.00
2019-02-23T08:32:47.729Z,7.03
2019-02-23T08:35:16.280Z,7.09
2019-02-23T08:37:44.753Z,7.14
2019-02-23T08:40:14.958Z,7.16
2019-02-23T08:42:44.593Z,7.19
2019-02-23T08:45:13.146Z,7.20
2019-02-23T08:47:41.854Z,7.22
2019-02-23T08:50:15.145Z,7.25
2019-02-23T08:52:49.265Z,7.23
2019-02-23T08:55:13.960Z,7.28
2019-02-23T08:57:42.552Z,7.34
2019-02-23T09:00:14.194Z,7.38
2019-02-23T09:02:42.704Z,7.46
2019-02-23T09:05:12.016Z,7.50
2019-02-23T09:07:40.636Z,7.50
2019-02-23T09:10:13.337Z,7.49
2019-02-23T09:12:41.998Z,7.50
2019-02-23T09:15:11.320Z,7.50
2019-02-23T09:17:39.933Z,7.52
2019-02-23T09:20:12.789Z,7.56
2019-02-23T09:22:41.304Z,7.57
2019-02-23T09:25:10.993Z,7.55
2019-02-23T09:27:39.616Z,7.55
2019-02-23T09:30:12.986Z,7.56
2019-02-23T09:32:41.562Z,7.58
2019-02-23T09:35:10.967Z,7.61
2019-02-23T09:37:39.584Z,7.69
2019-02-23T09:40:13.985Z,7.72
2019-02-23T09:42:42.634Z,7.79
2019-02-23T09:45:12.659Z,7.85
2019-02-23T09:47:41.266Z,7.92
2019-02-23T09:50:09.918Z,8.00
2019-02-23T09:52:38.374Z,8.08
2019-02-23T09:55:08.656Z,8.16
2019-02-23T09:57:37.147Z,8.23
2019-02-23T10:00:11.195Z,8.33
2019-02-23T10:02:39.702Z,8.46
2019-02-23T10:05:08.870Z,8.50
2019-02-23T10:07:37.628Z,8.52
2019-02-23T10:10:08.746Z,8.59
2019-02-23T10:12:37.215Z,8.65
2019-02-23T10:15:07.888Z,8.70
2019-02-23T10:17:36.391Z,8.73
2019-02-23T10:20:07.290Z,8.82
2019-02-23T10:22:35.907Z,8.92
2019-02-23T10:25:05.117Z,9.00
2019-02-23T10:27:33.737Z,9.13
2019-02-23T10:30:02.253Z,9.24
2019-02-23T10:32:30.691Z,9.32
2019-02-23T10:34:59.131Z,9.38
2019-02-23T10:37:27.694Z,9.40
2019-02-23T10:39:56.229Z,9.48
2019-02-23T10:42:24.960Z,9.61
2019-02-23T10:44:53.421Z,9.72
2019-02-23T10:47:21.933Z,9.87
2019-02-23T10:49:50.369Z,9.96
2019-02-23T10:52:19.011Z,10.07
2019-02-23T10:54:47.636Z,10.13
2019-02-23T10:57:16.166Z,10.20
2019-02-23T10:59:44.700Z,10.24
2019-02-23T11:02:14.115Z,10.30
2019-02-23T11:04:42.655Z,10.41
2019-02-23T11:07:11.280Z,10.51
2019-02-23T11:09:40.093Z,10.66
2019-02-23T11:12:08.813Z,10.82
2019-02-23T11:14:37.358Z,10.97
2019-02-23T11:17:05.980Z,11.13
2019-02-23T11:19:34.658Z,11.21
2019-02-23T11:22:03.361Z,11.27
2019-02-23T11:24:31.890Z,11.42
2019-02-23T11:27:00.582Z,11.51
2019-02-23T11:29:30.342Z,11.64
2019-02-23T11:31:58.864Z,11.82
2019-02-23T11:34:27.764Z,11.94
2019-02-23T11:36:56.407Z,12.09
2019-02-23T11:39:25.009Z,12.29
2019-02-23T11:41:53.553Z,12.48
2019-02-23T11:44:22.133Z,12.61
2019-02-23T11:46:59.769Z,12.69
2019-02-23T11:49:20.960Z,12.85
2019-02-23T11:51:49.538Z,13.03
2019-02-23T11:54:17.982Z,13.17
2019-02-23T11:56:46.658Z,13.25
2019-02-23T11:59:15.238Z,13.42
2019-02-23T12:01:43.936Z,13.54
2019-02-23T12:04:12.482Z,13.62
2019-02-23T12:06:41.091Z,13.70
2019-02-23T12:09:09.781Z,13.84
2019-02-23T12:11:38.469Z,13.97
2019-02-23T12:14:06.991Z,14.05
2019-02-23T12:16:35.537Z,14.11
2019-02-23T12:19:04.238Z,14.21
2019-02-23T12:21:32.736Z,14.26
2019-02-23T12:24:06.031Z,14.44
2019-02-23T12:26:31.631Z,14.62
2019-02-23T12:29:00.416Z,14.87
2019-02-23T12:31:28.852Z,14.97
2019-02-23T12:33:57.406Z,14.99
2019-02-23T12:36:25.848Z,15.10
2019-02-23T12:38:54.360Z,15.24
2019-02-23T12:41:23.361Z,15.31
2019-02-23T12:43:52.079Z,15.32
2019-02-23T12:46:20.608Z,15.33
2019-02-23T12:48:49.153Z,15.40
2019-02-23T12:51:17.772Z,15.47
2019-02-23T12:53:46.219Z,15.61
2019-02-23T12:56:14.749Z,15.67
2019-02-23T12:58:43.215Z,15.72
2019-02-23T13:01:11.678Z,15.79
2019-02-23T13:03:40.211Z,15.98
2019-02-23T13:06:08.754Z,16.04
2019-02-23T13:09:12.311Z,16.24
2019-02-23T13:11:41.885Z,16.45
2019-02-23T13:14:30.214Z,16.61
2019-02-23T13:17:10.904Z,16.77
2019-02-23T13:19:58.795Z,16.78
2019-02-23T13:22:30.274Z,16.79
2019-02-23T13:25:25.988Z,16.75
2019-02-23T13:28:09.437Z,16.72
2019-02-23T13:30:49.534Z,16.73
2019-02-23T13:33:32.656Z,16.89
2019-02-23T13:36:25.035Z,17.00
2019-02-23T13:39:08.470Z,17.20
2019-02-23T13:41:54.973Z,17.27
2019-02-23T13:44:32.437Z,17.24
2019-02-23T13:47:09.627Z,17.31
2019-02-23T13:50:02.412Z,17.40
2019-02-23T13:52:55.277Z,17.43
2019-02-23T13:55:54.011Z,17.30
2019-02-23T13:58:37.569Z,17.11
2019-02-23T14:01:14.882Z,16.86
2019-02-23T14:03:55.392Z,16.86
2019-02-23T14:06:26.931Z,16.82
2019-02-23T14:09:25.699Z,16.84
2019-02-23T14:12:16.712Z,16.88
2019-02-23T14:15:21.446Z,16.81
2019-02-23T14:17:58.767Z,16.63
2019-02-23T14:20:41.990Z,16.52
2019-02-23T14:23:22.260Z,16.59
2019-02-23T14:26:16.560Z,16.86
2019-02-23T14:28:48.072Z,17.35
2019-02-23T14:31:34.855Z,17.68
2019-02-23T14:34:12.190Z,17.89
2019-02-23T14:37:01.933Z,17.42
2019-02-23T14:39:33.634Z,16.88
2019-02-23T14:42:17.258Z,16.42
2019-02-23T14:45:06.537Z,16.04
2019-02-23T14:47:43.818Z,15.73
2019-02-23T14:50:45.525Z,15.51
2019-02-23T14:53:29.241Z,15.34
2019-02-23T14:56:18.877Z,15.20
2019-02-23T14:58:50.406Z,15.07
2019-02-23T15:01:24.773Z,15.06
2019-02-23T15:04:16.015Z,15.00
2019-02-23T15:06:56.667Z,14.95
2019-02-23T15:09:42.977Z,14.92
2019-02-23T15:12:19.695Z,14.83
2019-02-23T15:14:57.358Z,14.76
2019-02-23T15:17:34.976Z,14.69
2019-02-23T15:20:27.998Z,14.68
2019-02-23T15:23:08.392Z,14.64
2019-02-23T15:25:55.048Z,14.64
2019-02-23T15:28:44.469Z,14.61
2019-02-23T15:31:32.865Z,14.57
2019-02-23T15:34:04.387Z,14.48
2019-02-23T15:36:59.781Z,14.36
2019-02-23T15:39:50.044Z,14.27
2019-02-23T15:42:27.608Z,14.24
2019-02-23T15:45:15.816Z,14.18
2019-02-23T15:48:01.878Z,14.18
2019-02-23T15:50:30.500Z,14.16
2019-02-23T15:52:59.155Z,14.17
2019-02-23T15:55:29.833Z,14.14
2019-02-23T15:57:58.478Z,14.08
2019-02-23T16:00:27.055Z,13.97
2019-02-23T16:02:55.591Z,13.89
2019-02-23T16:05:24.116Z,13.83
2019-02-23T16:07:52.722Z,13.78
2019-02-23T16:10:21.310Z,13.71
2019-02-23T16:12:49.840Z,13.66
2019-02-23T16:15:18.470Z,13.64
2019-02-23T16:17:46.986Z,13.59
2019-02-23T16:20:15.531Z,13.56
2019-02-23T16:22:44.175Z,13.52
2019-02-23T16:25:12.702Z,13.45
2019-02-23T16:27:41.289Z,13.41
2019-02-23T16:30:10.872Z,13.38
2019-02-23T16:32:39.411Z,13.34
2019-02-23T16:35:08.486Z,13.32
2019-02-23T16:37:37.056Z,13.26
2019-02-23T16:40:07.013Z,13.22
2019-02-23T16:42:35.616Z,13.16
2019-02-23T16:45:06.072Z,13.10
2019-02-23T16:47:34.653Z,13.05
2019-02-23T16:50:03.308Z,13.02
2019-02-23T16:52:31.896Z,12.98
2019-02-23T16:55:00.472Z,12.91
2019-02-23T16:57:28.963Z,12.88
2019-02-23T16:59:57.418Z,12.83
2019-02-23T17:02:26.072Z,12.77
2019-02-23T17:04:54.585Z,12.72
2019-02-23T17:07:23.138Z,12.69
2019-02-23T17:09:51.635Z,12.65
2019-02-23T17:12:20.103Z,12.62
2019-02-23T17:14:48.571Z,12.57
2019-02-23T17:17:17.197Z,12.45
2019-02-23T17:19:45.964Z,12.29
2019-02-23T17:22:14.519Z,12.14
2019-02-23T17:24:43.188Z,12.04
2019-02-23T17:27:11.625Z,11.94
2019-02-23T17:29:40.263Z,11.83
2019-02-23T17:32:08.819Z,11.77
2019-02-23T17:34:37.333Z,11.69
2019-02-23T17:37:05.850Z,11.64
2019-02-23T17:39:34.405Z,11.57
2019-02-23T17:42:03.003Z,11.50
2019-02-23T17:44:31.504Z,11.46
2019-02-23T17:47:00.065Z,11.40
2019-02-23T17:49:28.754Z,11.34
2019-02-23T17:51:57.260Z,11.27
2019-02-23T17:54:25.882Z,11.22
2019-02-23T17:56:54.380Z,11.16
2019-02-23T17:59:22.949Z,11.11
2019-02-23T18:01:51.487Z,11.07
2019-02-23T18:04:20.260Z,11.00
2019-02-23T18:06:48.749Z,10.97
2019-02-23T18:09:17.285Z,10.92
2019-02-23T18:11:45.852Z,10.88
2019-02-23T18:14:15.784Z,10.83
2019-02-23T18:16:44.670Z,10.80
2019-02-23T18:19:13.129Z,10.76
2019-02-23T18:21:41.752Z,10.74
2019-02-23T18:24:10.195Z,10.67
2019-02-23T18:26:38.735Z,10.58
2019-02-23T18:29:07.816Z,10.51
2019-02-23T18:31:36.440Z,10.51
2019-02-23T18:34:04.958Z,10.51
2019-02-23T18:36:33.495Z,10.47
2019-02-23T18:39:02.112Z,10.44
2019-02-23T18:41:30.747Z,10.41
2019-02-23T18:43:59.240Z,10.39
2019-02-23T18:46:27.848Z,10.35
2019-02-23T18:48:56.275Z,10.21
2019-02-23T18:51:25.158Z,10.21
2019-02-23T18:53:53.600Z,10.20
2019-02-23T18:56:29.416Z,10.20
2019-02-23T18:58:52.340Z,10.18
2019-02-23T19:01:21.089Z,10.13
2019-02-23T19:03:49.586Z,10.09
2019-02-23T19:06:18.283Z,10.07
2019-02-23T19:08:47.004Z,10.04
2019-02-23T19:11:15.465Z,10.00
2019-02-23T19:13:44.073Z,9.95
2019-02-23T19:16:12.555Z,9.91
2019-02-23T19:18:41.210Z,9.89
2019-02-23T19:21:09.798Z,9.85
2019-02-23T19:23:38.329Z,9.81
2019-02-23T19:26:06.996Z,9.78
2019-02-23T19:28:43.018Z,9.74
2019-02-23T19:31:05.911Z,9.69
2019-02-23T19:33:34.570Z,9.65
2019-02-23T19:36:03.188Z,9.63
2019-02-23T19:38:31.727Z,9.58
2019-02-23T19:41:00.348Z,9.55
2019-02-23T19:43:28.810Z,9.52
2019-02-23T19:45:57.437Z,9.48
2019-02-23T19:48:25.997Z,9.45
2019-02-23T19:50:58.103Z,9.43
2019-02-23T19:53:26.568Z,9.41
2019-02-23T19:55:55.230Z,9.37
2019-02-23T19:58:23.720Z,9.35
2019-02-23T20:00:52.370Z,9.30
2019-02-23T20:03:20.868Z,9.27
2019-02-23T20:05:49.892Z,9.25
2019-02-23T20:08:18.710Z,9.22
2019-02-23T20:10:47.154Z,9.19
2019-02-23T20:13:15.835Z,9.16
2019-02-23T20:15:44.416Z,9.13
2019-02-23T20:18:12.950Z,9.10
2019-02-23T20:20:42.160Z,9.07
2019-02-23T20:23:10.788Z,9.03
2019-02-23T20:25:39.420Z,8.97
2019-02-23T20:28:08.010Z,8.93
2019-02-23T20:30:36.544Z,8.91
2019-02-23T20:33:05.081Z,8.88
2019-02-23T20:35:33.671Z,8.86
2019-02-23T20:38:02.184Z,8.83
2019-02-23T20:40:30.847Z,8.85
2019-02-23T20:42:59.360Z,8.86
2019-02-23T20:45:27.945Z,8.87
2019-02-23T20:47:56.748Z,8.81
2019-02-23T20:50:25.259Z,8.74
2019-02-23T20:52:53.736Z,8.70
2019-02-23T20:55:24.058Z,8.65
2019-02-23T20:57:52.731Z,8.63
2019-02-23T21:00:21.362Z,8.61
2019-02-23T21:02:49.807Z,8.57
2019-02-23T21:05:20.156Z,8.53
2019-02-23T21:07:48.975Z,8.51
2019-02-23T21:10:17.612Z,8.47
2019-02-23T21:12:46.144Z,8.45
2019-02-23T21:15:15.065Z,8.42
2019-02-23T21:17:43.496Z,8.39
2019-02-23T21:20:12.284Z,8.37
2019-02-23T21:22:40.737Z,8.35
2019-02-23T21:25:10.096Z,8.33
2019-02-23T21:27:38.627Z,8.30
2019-02-23T21:30:09.205Z,8.28
2019-02-23T21:32:37.734Z,8.27
2019-02-23T21:35:08.214Z,8.24
2019-02-23T21:37:36.838Z,8.21
2019-02-23T21:40:08.030Z,8.19
2019-02-23T21:42:36.672Z,8.18
2019-02-23T21:45:07.385Z,8.16
2019-02-23T21:47:36.021Z,8.13
2019-02-23T21:50:07.054Z,8.12
2019-02-23T21:52:35.679Z,8.10
2019-02-23T21:55:04.451Z,8.07
2019-02-23T21:57:33.222Z,8.05
2019-02-23T22:00:01.736Z,8.03
2019-02-23T22:02:30.438Z,8.02
2019-02-23T22:04:58.964Z,8.01
2019-02-23T22:07:27.414Z,7.98
2019-02-23T22:09:55.873Z,7.96
2019-02-23T22:12:24.458Z,7.93
2019-02-23T22:14:53.055Z,7.92
2019-02-23T22:17:21.499Z,7.90
2019-02-23T22:19:49.947Z,7.88
2019-02-23T22:22:18.509Z,7.87
2019-02-23T22:24:46.934Z,7.85
2019-02-23T22:27:15.383Z,7.82
2019-02-23T22:29:43.928Z,7.80
2019-02-23T22:32:12.361Z,7.76
2019-02-23T22:34:40.844Z,7.73
2019-02-23T22:37:09.360Z,7.71
2019-02-23T22:39:37.841Z,7.69
2019-02-23T22:42:06.443Z,7.67
2019-02-23T22:44:34.991Z,7.66
2019-02-23T22:47:03.505Z,7.63
2019-02-23T22:49:32.238Z,7.61
2019-02-23T22:52:00.674Z,7.60
2019-02-23T22:54:29.206Z,7.58
2019-02-23T22:56:57.660Z,7.54
2019-02-23T22:59:26.117Z,7.52
2019-02-23T23:01:54.813Z,7.52
2019-02-23T23:04:23.337Z,7.48
2019-02-23T23:06:51.838Z,7.48
2019-02-23T23:09:20.756Z,7.46
2019-02-23T23:11:49.379Z,7.43
2019-02-23T23:14:17.925Z,7.40
2019-02-23T23:16:46.460Z,7.38
2019-02-23T23:19:15.124Z,7.35
2019-02-23T23:21:43.639Z,7.34
2019-02-23T23:24:12.168Z,7.31
2019-02-23T23:26:40.629Z,7.30
2019-02-23T23:29:09.120Z,7.26
2019-02-23T23:31:37.623Z,7.25
2019-02-23T23:34:06.152Z,7.22
2019-02-23T23:36:34.684Z,7.21
2019-02-23T23:39:03.845Z,7.17
2019-02-23T23:41:32.585Z,7.17
2019-02-23T23:44:01.176Z,7.17
2019-02-23T23:46:29.694Z,7.14
2019-02-23T23:48:58.282Z,7.13
2019-02-23T23:51:26.767Z,7.10
2019-02-23T23:53:55.360Z,7.08
2019-02-23T23:56:24.061Z,7.06
2019-02-23T23:58:52.503Z,7.02
